createdAt,value
2019-05-11T00:00:45.369Z,41.48
2019-05-11T00:03:51.418Z,41.47
2019-05-11T00:06:57.306Z,41.52
2019-05-11T00:10:03.185Z,42.02
2019-05-11T00:13:10.712Z,41.99
2019-05-11T00:16:19.160Z,42.07
2019-05-11T00:19:25.460Z,42.07
2019-05-11T00:22:31.434Z,42.38
2019-05-11T00:25:37.438Z,42.90
2019-05-11T00:28:43.399Z,42.85
2019-05-11T00:31:49.294Z,43.00
2019-05-11T00:34:55.212Z,43.33
2019-05-11T00:38:01.087Z,43.22
2019-05-11T00:41:07.068Z,43.29
2019-05-11T00:44:14.086Z,43.44
2019-05-11T00:47:20.077Z,43.60
2019-05-11T00:50:38.589Z,43.37
2019-05-11T00:53:33.704Z,43.67
2019-05-11T00:56:39.612Z,43.67
2019-05-11T00:59:45.576Z,43.74
2019-05-11T01:02:51.456Z,43.58
2019-05-11T01:05:57.428Z,43.67
2019-05-11T01:09:03.988Z,43.71
2019-05-11T01:12:10.030Z,44.30
2019-05-11T01:15:16.099Z,44.21
2019-05-11T01:18:22.042Z,44.62
2019-05-11T01:21:28.194Z,44.52
2019-05-11T01:24:34.770Z,44.52
2019-05-11T01:27:41.765Z,44.78
2019-05-11T01:30:47.666Z,44.85
2019-05-11T01:33:53.613Z,45.27
2019-05-11T01:36:59.488Z,45.24
2019-05-11T01:40:05.738Z,45.18
2019-05-11T01:43:11.818Z,45.18
2019-05-11T01:46:17.855Z,45.24
2019-05-11T01:49:23.749Z,45.46
2019-05-11T01:52:29.643Z,45.44
2019-05-11T01:55:35.566Z,45.17
2019-05-11T01:58:41.443Z,45.15
2019-05-11T02:01:47.464Z,45.15
2019-05-11T02:05:12.211Z,45.42
2019-05-11T02:08:18.102Z,45.62
2019-05-11T02:11:24.010Z,45.73
2019-05-11T02:14:30.010Z,45.71
2019-05-11T02:17:35.884Z,45.62
2019-05-11T02:20:41.787Z,45.73
2019-05-11T02:23:47.853Z,45.72
2019-05-11T02:26:53.718Z,45.72
2019-05-11T02:29:59.719Z,45.55
2019-05-11T02:33:05.907Z,45.71
2019-05-11T02:36:11.889Z,45.71
2019-05-11T02:39:17.789Z,45.52
2019-05-11T02:42:23.687Z,45.51
2019-05-11T02:45:41.167Z,45.35
2019-05-11T02:48:47.112Z,45.37
2019-05-11T02:51:53.571Z,45.37
2019-05-11T02:55:00.432Z,45.35
2019-05-11T02:58:07.568Z,45.67
2019-05-11T03:01:13.427Z,45.67
2019-05-11T03:04:19.365Z,45.92
2019-05-11T03:07:25.244Z,45.70
2019-05-11T03:10:31.304Z,45.89
2019-05-11T03:13:37.156Z,45.90
2019-05-11T03:16:43.174Z,45.91
2019-05-11T03:19:49.076Z,45.64
2019-05-11T03:22:54.983Z,45.69
2019-05-11T03:26:00.894Z,46.27
2019-05-11T03:29:06.892Z,45.60
2019-05-11T03:32:12.749Z,45.59
2019-05-11T03:35:18.936Z,45.50
2019-05-11T03:38:24.802Z,45.22
2019-05-11T03:41:30.729Z,44.93
2019-05-11T03:44:36.705Z,44.96
2019-05-11T03:47:42.682Z,44.72
2019-05-11T03:50:48.594Z,44.84
2019-05-11T03:53:54.580Z,44.50
2019-05-11T03:57:00.519Z,43.87
2019-05-11T04:00:07.182Z,44.13
2019-05-11T04:03:13.033Z,44.13
2019-05-11T04:06:18.849Z,44.18
2019-05-11T04:09:24.912Z,44.38
2019-05-11T04:12:35.446Z,44.78
2019-05-11T04:15:38.077Z,44.68
2019-05-11T04:18:43.758Z,44.18
2019-05-11T04:21:49.605Z,44.12
2019-05-11T04:24:55.305Z,43.75
2019-05-11T04:28:00.970Z,43.68
2019-05-11T04:31:06.657Z,45.17
2019-05-11T04:34:12.399Z,45.17
2019-05-11T04:37:18.245Z,44.78
2019-05-11T04:40:23.878Z,44.40
2019-05-11T04:43:29.581Z,43.99
2019-05-11T04:46:35.284Z,44.30
2019-05-11T04:49:41.030Z,43.78
2019-05-11T04:52:46.700Z,43.60
2019-05-11T04:55:52.493Z,43.66
2019-05-11T04:58:58.154Z,43.79
2019-05-11T05:02:04.016Z,42.81
2019-05-11T05:05:09.823Z,42.54
2019-05-11T05:08:15.663Z,43.57
2019-05-11T05:11:21.318Z,43.32
2019-05-11T05:14:27.102Z,42.93
2019-05-11T05:17:32.897Z,42.70
2019-05-11T05:20:38.581Z,42.17
2019-05-11T05:23:44.324Z,41.80
2019-05-11T05:26:50.109Z,41.42
2019-05-11T05:29:55.882Z,41.29
2019-05-11T05:33:01.635Z,40.72
2019-05-11T05:36:07.753Z,40.32
2019-05-11T05:39:13.484Z,40.93
2019-05-11T05:42:19.192Z,41.10
2019-05-11T05:45:24.928Z,40.58
2019-05-11T05:48:30.606Z,41.02
2019-05-11T05:51:36.353Z,41.05
2019-05-11T05:54:42.055Z,40.76
2019-05-11T05:57:47.785Z,40.27
2019-05-11T06:00:54.651Z,40.49
2019-05-11T06:04:01.433Z,39.52
2019-05-11T06:07:07.106Z,39.36
2019-05-11T06:10:13.156Z,39.57
2019-05-11T06:13:18.978Z,39.47
2019-05-11T06:16:24.700Z,39.92
2019-05-11T06:19:30.476Z,39.02
2019-05-11T06:22:36.141Z,38.81
2019-05-11T06:25:41.956Z,39.08
2019-05-11T06:28:47.702Z,38.45
2019-05-11T06:31:53.373Z,38.48
2019-05-11T06:34:59.124Z,37.85
2019-05-11T06:38:04.854Z,38.04
2019-05-11T06:41:18.245Z,38.51
2019-05-11T06:44:23.915Z,38.08
2019-05-11T06:47:29.600Z,38.19
2019-05-11T06:50:35.342Z,37.39
2019-05-11T06:53:41.052Z,36.74
2019-05-11T06:56:46.792Z,36.99
2019-05-11T06:59:52.604Z,36.12
2019-05-11T07:02:58.277Z,35.56
2019-05-11T07:06:04.037Z,35.64
2019-05-11T07:09:12.437Z,34.75
2019-05-11T07:12:20.096Z,33.94
2019-05-11T07:15:28.085Z,34.08
2019-05-11T07:18:33.935Z,33.59
2019-05-11T07:21:39.608Z,33.73
2019-05-11T07:24:45.279Z,33.49
2019-05-11T07:27:51.021Z,33.87
2019-05-11T07:30:56.727Z,34.06
2019-05-11T07:34:02.440Z,32.98
2019-05-11T07:37:08.346Z,33.20
2019-05-11T07:40:15.198Z,32.86
2019-05-11T07:43:21.298Z,33.14
2019-05-11T07:46:28.846Z,32.38
2019-05-11T07:49:34.475Z,33.00
2019-05-11T07:52:40.197Z,32.21
2019-05-11T07:55:48.329Z,31.95
2019-05-11T07:58:53.476Z,31.12
2019-05-11T08:01:59.375Z,31.50
2019-05-11T08:05:05.570Z,31.89
2019-05-11T08:08:11.209Z,31.69
2019-05-11T08:11:18.304Z,31.06
2019-05-11T08:14:24.363Z,30.93
2019-05-11T08:17:30.189Z,30.03
2019-05-11T08:20:38.355Z,31.16
2019-05-11T08:23:43.310Z,30.93
2019-05-11T08:26:49.051Z,30.27
2019-05-11T08:30:12.063Z,30.12
2019-05-11T08:33:20.971Z,29.60
2019-05-11T08:36:28.967Z,29.83
2019-05-11T08:39:34.292Z,30.52
2019-05-11T08:42:41.994Z,30.44
2019-05-11T08:46:04.217Z,30.12
2019-05-11T08:49:09.909Z,29.42
2019-05-11T08:52:15.659Z,28.84
2019-05-11T08:55:21.434Z,27.11
2019-05-11T08:58:27.872Z,26.41
2019-05-11T09:01:34.750Z,27.10
2019-05-11T09:04:48.471Z,27.35
2019-05-11T09:08:08.059Z,27.52
2019-05-11T09:11:20.728Z,27.33
2019-05-11T09:14:49.322Z,28.39
2019-05-11T09:18:11.284Z,27.96
2019-05-11T09:21:19.906Z,27.60
2019-05-11T09:24:35.297Z,26.84
2019-05-11T09:27:43.438Z,26.19
2019-05-11T09:30:48.482Z,26.54
2019-05-11T09:33:55.331Z,26.41
2019-05-11T09:37:01.025Z,26.15
2019-05-11T09:40:07.955Z,25.59
2019-05-11T09:43:17.697Z,25.32
2019-05-11T09:46:27.903Z,25.39
2019-05-11T09:49:52.320Z,25.37
2019-05-11T09:52:48.907Z,25.42
2019-05-11T09:55:55.435Z,25.11
2019-05-11T09:59:02.346Z,25.24
2019-05-11T10:02:08.205Z,25.47
2019-05-11T10:05:13.999Z,24.86
2019-05-11T10:08:19.736Z,24.45
2019-05-11T10:11:28.086Z,23.84
2019-05-11T10:14:33.152Z,24.32
2019-05-11T10:17:38.848Z,24.41
2019-05-11T10:20:44.568Z,24.20
2019-05-11T10:23:50.373Z,23.97
2019-05-11T10:26:57.801Z,23.61
2019-05-11T10:30:03.605Z,23.55
2019-05-11T10:33:09.690Z,23.07
2019-05-11T10:36:18.597Z,22.40
2019-05-11T10:39:23.932Z,22.37
2019-05-11T10:42:31.539Z,22.37
2019-05-11T10:45:40.760Z,22.08
2019-05-11T10:48:48.269Z,21.77
2019-05-11T10:52:04.932Z,22.22
2019-05-11T10:55:10.891Z,22.55
2019-05-11T10:58:21.342Z,23.14
2019-05-11T11:01:28.531Z,23.54
2019-05-11T11:04:38.039Z,23.28
2019-05-11T11:07:43.572Z,23.33
2019-05-11T11:10:49.468Z,23.37
2019-05-11T11:13:55.302Z,22.97
2019-05-11T11:17:15.888Z,22.42
2019-05-11T11:20:29.781Z,22.38
2019-05-11T11:23:38.478Z,23.04
2019-05-11T11:26:57.627Z,23.62
2019-05-11T11:30:03.597Z,23.37
2019-05-11T11:33:12.939Z,22.56
2019-05-11T11:36:18.700Z,22.06
2019-05-11T11:39:24.484Z,21.95
2019-05-11T11:42:30.166Z,22.13
2019-05-11T11:45:37.896Z,22.25
2019-05-11T11:48:43.394Z,22.06
2019-05-11T11:51:49.197Z,22.15
2019-05-11T11:54:54.992Z,21.74
2019-05-11T11:58:00.634Z,22.54
2019-05-11T12:01:08.164Z,22.70
2019-05-11T12:04:13.845Z,22.50
2019-05-11T12:07:19.937Z,22.40
2019-05-11T12:10:25.656Z,22.50
2019-05-11T12:13:33.290Z,22.33
2019-05-11T12:16:39.012Z,22.11
2019-05-11T12:19:44.664Z,22.37
2019-05-11T12:22:50.408Z,22.13
2019-05-11T12:25:57.986Z,22.22
2019-05-11T12:29:03.820Z,22.62
2019-05-11T12:32:13.725Z,22.46
2019-05-11T12:35:23.028Z,21.98
2019-05-11T12:38:28.686Z,22.21
2019-05-11T12:41:34.594Z,22.02
2019-05-11T12:44:40.265Z,21.90
2019-05-11T12:47:47.984Z,21.99
2019-05-11T12:50:53.395Z,22.17
2019-05-11T12:53:59.130Z,22.23
2019-05-11T12:57:11.617Z,22.49
2019-05-11T13:00:18.104Z,21.93
2019-05-11T13:03:27.845Z,22.30
2019-05-11T13:06:35.177Z,22.22
2019-05-11T13:09:40.867Z,22.25
2019-05-11T13:12:49.027Z,21.95
2019-05-11T13:15:53.952Z,21.17
2019-05-11T13:18:59.746Z,21.39
2019-05-11T13:22:07.763Z,20.77
2019-05-11T13:25:13.032Z,21.38
2019-05-11T13:28:18.746Z,22.17
2019-05-11T13:31:24.500Z,22.70
2019-05-11T13:34:31.474Z,22.83
2019-05-11T13:37:38.616Z,22.41
2019-05-11T13:40:44.671Z,22.39
2019-05-11T13:43:50.701Z,22.22
2019-05-11T13:46:58.423Z,22.09
2019-05-11T13:50:07.591Z,21.66
2019-05-11T13:53:12.690Z,22.02
2019-05-11T13:56:18.741Z,21.83
2019-05-11T13:59:27.992Z,21.98
2019-05-11T14:02:33.443Z,21.65
2019-05-11T14:05:39.138Z,21.70
2019-05-11T14:08:45.067Z,21.52
2019-05-11T14:11:50.810Z,21.42
2019-05-11T14:14:57.662Z,21.40
2019-05-11T14:18:08.607Z,21.39
2019-05-11T14:21:12.496Z,21.07
2019-05-11T14:24:18.538Z,21.01
2019-05-11T14:27:25.494Z,20.98
2019-05-11T14:30:31.201Z,21.24
2019-05-11T14:33:38.581Z,21.12
2019-05-11T14:36:44.464Z,21.07
2019-05-11T14:39:50.199Z,20.89
2019-05-11T14:42:58.098Z,20.51
2019-05-11T14:46:04.290Z,20.65
2019-05-11T14:49:09.985Z,20.58
2019-05-11T14:52:15.657Z,20.31
2019-05-11T14:55:21.613Z,20.24
2019-05-11T14:58:28.008Z,19.84
2019-05-11T15:01:33.764Z,20.18
2019-05-11T15:04:39.440Z,20.39
2019-05-11T15:07:47.328Z,20.55
2019-05-11T15:10:52.904Z,20.33
2019-05-11T15:13:58.580Z,20.23
2019-05-11T15:17:04.248Z,20.35
2019-05-11T15:20:12.644Z,20.59
2019-05-11T15:23:18.224Z,21.42
2019-05-11T15:26:24.035Z,21.37
2019-05-11T15:29:29.708Z,21.53
2019-05-11T15:32:37.476Z,21.69
2019-05-11T15:35:42.834Z,21.90
2019-05-11T15:38:48.531Z,21.88
2019-05-11T15:42:07.331Z,22.39
2019-05-11T15:45:01.621Z,22.81
2019-05-11T15:48:08.479Z,24.57
2019-05-11T15:51:14.380Z,24.05
2019-05-11T15:54:20.062Z,24.57
2019-05-11T15:57:28.776Z,25.90
2019-05-11T16:00:34.567Z,24.66
2019-05-11T16:03:40.243Z,24.50
2019-05-11T16:06:45.966Z,24.75
2019-05-11T16:09:51.631Z,24.56
2019-05-11T16:21:07.928Z,23.72
2019-05-11T16:24:00.017Z,24.41
2019-05-11T16:27:20.482Z,23.50
2019-05-11T16:30:23.034Z,22.70
2019-05-11T16:33:28.845Z,23.32
2019-05-11T16:36:34.535Z,23.36
2019-05-11T16:39:41.916Z,23.90
2019-05-11T16:42:50.826Z,24.36
2019-05-11T16:45:57.965Z,24.55
2019-05-11T16:49:03.907Z,24.75
2019-05-11T16:52:10.251Z,25.52
2019-05-11T16:55:18.195Z,25.81
2019-05-11T16:58:23.483Z,26.21
2019-05-11T17:01:29.177Z,26.39
2019-05-11T17:04:34.885Z,27.18
2019-05-11T17:07:40.554Z,27.32
2019-05-11T17:10:55.272Z,27.37
2019-05-11T17:14:00.982Z,28.07
2019-05-11T17:17:08.852Z,27.78
2019-05-11T17:20:14.722Z,28.07
2019-05-11T17:23:20.413Z,28.47
2019-05-11T17:26:27.919Z,29.27
2019-05-11T17:29:33.795Z,28.74
2019-05-11T17:32:39.560Z,28.88
2019-05-11T17:35:45.258Z,29.66
2019-05-11T17:38:51.068Z,30.23
2019-05-11T17:41:58.297Z,29.65
2019-05-11T17:45:07.938Z,29.56
2019-05-11T17:48:13.074Z,29.94
2019-05-11T17:51:22.576Z,30.20
2019-05-11T17:54:28.341Z,30.71
2019-05-11T17:57:39.527Z,31.09
2019-05-11T18:00:47.923Z,30.73
2019-05-11T18:03:53.367Z,32.09
2019-05-11T18:06:59.099Z,31.29
2019-05-11T18:10:05.021Z,31.20
2019-05-11T18:13:11.751Z,31.74
2019-05-11T18:16:18.917Z,31.40
2019-05-11T18:19:24.912Z,31.15
2019-05-11T18:22:30.614Z,30.95
2019-05-11T18:25:38.440Z,31.28
2019-05-11T18:28:43.734Z,32.08
2019-05-11T18:31:49.412Z,31.52
2019-05-11T18:34:55.175Z,31.83
2019-05-11T18:38:00.873Z,32.24
2019-05-11T18:41:06.672Z,32.94
2019-05-11T18:44:12.406Z,33.09
2019-05-11T18:47:18.463Z,33.28
2019-05-11T18:50:30.326Z,33.05
2019-05-11T18:53:31.881Z,33.18
2019-05-11T18:56:41.019Z,33.25
2019-05-11T18:59:48.373Z,33.88
2019-05-11T19:02:54.249Z,32.95
2019-05-11T19:05:59.935Z,33.27
2019-05-11T19:09:07.863Z,34.00
2019-05-11T19:12:13.528Z,34.23
2019-05-11T19:15:23.079Z,34.62
2019-05-11T19:18:28.916Z,34.75
2019-05-11T19:21:34.559Z,34.55
2019-05-11T19:24:44.950Z,34.67
2019-05-11T19:27:51.135Z,34.94
2019-05-11T19:30:59.105Z,35.29
2019-05-11T19:34:04.354Z,35.77
2019-05-11T19:37:10.042Z,36.35
2019-05-11T19:40:16.644Z,36.14
2019-05-11T19:43:22.452Z,35.92
2019-05-11T19:46:28.230Z,35.91
2019-05-11T19:49:47.854Z,35.76
2019-05-11T19:52:55.203Z,35.78
2019-05-11T19:59:50.857Z,35.99
2019-05-11T20:03:01.142Z,36.13
2019-05-11T20:06:08.751Z,36.63
2019-05-11T20:09:15.999Z,36.75
2019-05-11T20:12:21.686Z,36.23
2019-05-11T20:15:29.543Z,35.92
2019-05-11T20:18:35.269Z,35.94
2019-05-11T20:21:43.091Z,36.79
2019-05-11T20:25:04.051Z,36.46
2019-05-11T20:28:14.010Z,36.30
2019-05-11T20:31:21.041Z,37.02
2019-05-11T20:34:28.780Z,37.12
2019-05-11T20:37:34.073Z,37.66
2019-05-11T20:40:39.880Z,37.63
2019-05-11T20:43:45.602Z,37.47
2019-05-11T20:46:51.288Z,37.65
2019-05-11T20:49:58.711Z,37.95
2019-05-11T20:53:04.662Z,38.23
2019-05-11T20:56:10.337Z,38.19
2019-05-11T20:59:18.141Z,38.80
2019-05-11T21:02:23.463Z,38.78
2019-05-11T21:05:29.166Z,38.56
2019-05-11T21:08:34.849Z,38.19
2019-05-11T21:11:40.614Z,38.07
2019-05-11T21:14:48.455Z,38.29
2019-05-11T21:17:53.669Z,38.20
2019-05-11T21:20:59.393Z,37.76
2019-05-11T21:24:05.082Z,38.03
2019-05-11T21:27:10.754Z,38.07
2019-05-11T21:30:18.444Z,38.13
2019-05-11T21:33:24.137Z,37.95
2019-05-11T21:36:29.823Z,38.31
2019-05-11T21:39:37.800Z,39.18
2019-05-11T21:42:43.209Z,39.57
2019-05-11T21:45:48.947Z,40.14
2019-05-11T21:48:55.647Z,41.16
2019-05-11T21:52:04.348Z,42.18
2019-05-11T21:55:09.790Z,42.86
2019-05-11T21:58:18.087Z,43.34
2019-05-11T22:01:23.246Z,44.51
2019-05-11T22:04:28.946Z,44.97
2019-05-11T22:07:34.700Z,45.98
2019-05-11T22:10:41.608Z,46.66
2019-05-11T22:13:48.399Z,46.78
2019-05-11T22:16:54.245Z,48.63
2019-05-11T22:20:00.096Z,49.35
2019-05-11T22:23:08.959Z,49.67
2019-05-11T22:26:14.799Z,49.26
2019-05-11T22:29:20.512Z,49.70
2019-05-11T22:32:28.531Z,49.35
2019-05-11T22:35:34.548Z,50.40
2019-05-11T22:38:40.351Z,50.88
2019-05-11T22:41:48.173Z,51.12
2019-05-11T22:44:53.522Z,50.87
2019-05-11T22:47:59.256Z,50.94
2019-05-11T22:51:05.027Z,51.26
2019-05-11T22:54:12.293Z,50.48
2019-05-11T22:57:18.105Z,50.89
2019-05-11T23:00:41.580Z,50.48
2019-05-11T23:03:47.628Z,50.52
2019-05-11T23:06:53.444Z,50.91
2019-05-11T23:10:00.596Z,51.40
2019-05-11T23:13:08.263Z,51.03
2019-05-11T23:16:13.979Z,51.59
2019-05-11T23:19:19.732Z,51.34
2019-05-11T23:22:26.966Z,51.32
2019-05-11T23:25:33.355Z,51.25
2019-05-11T23:28:39.315Z,52.11
2019-05-11T23:31:44.957Z,52.74
2019-05-11T23:34:50.635Z,52.36
2019-05-11T23:37:58.128Z,53.29
2019-05-11T23:41:04.091Z,53.03
2019-05-11T23:44:09.903Z,53.25
2019-05-11T23:47:15.560Z,53.26
2019-05-11T23:50:21.692Z,53.01
2019-05-11T23:53:28.218Z,53.35
2019-05-11T23:56:34.087Z,54.02
2019-05-11T23:59:39.946Z,54.40
